sensor_id;sensor_type;location;lat;lon;timestamp;P1;durP1;ratioP1;P2;durP2;ratioP2
49828;SDS011;35723;51.194;5.112;2023-03-23T00:01:27;11.07;;;4.10;;
49828;SDS011;35723;51.194;5.112;2023-03-23T00:03:56;10.68;;;4.30;;
49828;SDS011;35723;51.194;5.112;2023-03-23T00:06:23;9.50;;;4.07;;
49828;SDS011;35723;51.194;5.112;2023-03-23T00:08:51;9.55;;;4.22;;
49828;SDS011;35723;51.194;5.112;2023-03-23T00:11:24;9.88;;;3.97;;
49828;SDS011;35723;51.194;5.112;2023-03-23T00:13:54;13.07;;;4.15;;
49828;SDS011;35723;51.194;5.112;2023-03-23T00:16:23;12.75;;;3.90;;
49828;SDS011;35723;51.194;5.112;2023-03-23T00:19:00;9.30;;;4.15;;
49828;SDS011;35723;51.194;5.112;2023-03-23T00:21:31;10.13;;;3.83;;
49828;SDS011;35723;51.194;5.112;2023-03-23T00:23:59;12.82;;;4.10;;
49828;SDS011;35723;51.194;5.112;2023-03-23T00:26:31;11.00;;;4.15;;
49828;SDS011;35723;51.194;5.112;2023-03-23T00:28:58;8.98;;;4.28;;
49828;SDS011;35723;51.194;5.112;2023-03-23T00:31:38;8.65;;;3.97;;
49828;SDS011;35723;51.194;5.112;2023-03-23T00:34:04;9.27;;;3.97;;
49828;SDS011;35723;51.194;5.112;2023-03-23T00:36:31;10.95;;;4.03;;
49828;SDS011;35723;51.194;5.112;2023-03-23T00:38:59;12.88;;;4.15;;
49828;SDS011;35723;51.194;5.112;2023-03-23T00:41:27;11.10;;;4.13;;
49828;SDS011;35723;51.194;5.112;2023-03-23T00:43:56;11.27;;;4.05;;
49828;SDS011;35723;51.194;5.112;2023-03-23T00:46:25;8.85;;;3.85;;
49828;SDS011;35723;51.194;5.112;2023-03-23T00:48:51;8.95;;;4.10;;
49828;SDS011;35723;51.194;5.112;2023-03-23T00:51:17;11.18;;;4.28;;
49828;SDS011;35723;51.194;5.112;2023-03-23T00:53:43;9.20;;;4.28;;
49828;SDS011;35723;51.194;5.112;2023-03-23T00:56:10;8.85;;;4.05;;
49828;SDS011;35723;51.194;5.112;2023-03-23T00:58:36;10.18;;;4.20;;
49828;SDS011;35723;51.194;5.112;2023-03-23T01:01:02;8.25;;;4.18;;
49828;SDS011;35723;51.194;5.112;2023-03-23T01:03:28;13.10;;;4.60;;
49828;SDS011;35723;51.194;5.112;2023-03-23T01:05:54;11.32;;;4.35;;
49828;SDS011;35723;51.194;5.112;2023-03-23T01:08:20;10.50;;;4.22;;
49828;SDS011;35723;51.194;5.112;2023-03-23T01:10:47;10.25;;;4.40;;
49828;SDS011;35723;51.194;5.112;2023-03-23T01:13:13;10.93;;;4.20;;
49828;SDS011;35723;51.194;5.112;2023-03-23T01:15:39;10.15;;;3.90;;
49828;SDS011;35723;51.194;5.112;2023-03-23T01:18:05;13.20;;;4.60;;
49828;SDS011;35723;51.194;5.112;2023-03-23T01:20:31;11.77;;;4.30;;
49828;SDS011;35723;51.194;5.112;2023-03-23T01:22:57;10.07;;;4.50;;
49828;SDS011;35723;51.194;5.112;2023-03-23T01:25:29;13.73;;;4.70;;
49828;SDS011;35723;51.194;5.112;2023-03-23T01:27:56;9.63;;;4.32;;
49828;SDS011;35723;51.194;5.112;2023-03-23T01:30:22;9.38;;;4.53;;
49828;SDS011;35723;51.194;5.112;2023-03-23T01:32:48;8.30;;;3.97;;
49828;SDS011;35723;51.194;5.112;2023-03-23T01:35:14;9.93;;;4.65;;
49828;SDS011;35723;51.194;5.112;2023-03-23T01:37:40;10.50;;;4.40;;
49828;SDS011;35723;51.194;5.112;2023-03-23T01:40:06;9.88;;;4.07;;
49828;SDS011;35723;51.194;5.112;2023-03-23T01:42:34;10.63;;;4.15;;
49828;SDS011;35723;51.194;5.112;2023-03-23T01:48:07;9.63;;;3.75;;
49828;SDS011;35723;51.194;5.112;2023-03-23T01:50:32;9.68;;;4.10;;
49828;SDS011;35723;51.194;5.112;2023-03-23T01:53:02;10.18;;;3.72;;
49828;SDS011;35723;51.194;5.112;2023-03-23T01:55:33;11.38;;;3.97;;
49828;SDS011;35723;51.194;5.112;2023-03-23T01:58:01;10.02;;;3.78;;
49828;SDS011;35723;51.194;5.112;2023-03-23T02:00:28;8.25;;;3.63;;
49828;SDS011;35723;51.194;5.112;2023-03-23T02:02:55;9.73;;;3.78;;
49828;SDS011;35723;51.194;5.112;2023-03-23T02:05:30;8.30;;;3.80;;
49828;SDS011;35723;51.194;5.112;2023-03-23T02:07:59;9.52;;;3.83;;
49828;SDS011;35723;51.194;5.112;2023-03-23T02:10:28;12.98;;;3.90;;
49828;SDS011;35723;51.194;5.112;2023-03-23T02:12:55;8.82;;;4.00;;
49828;SDS011;35723;51.194;5.112;2023-03-23T02:15:22;12.35;;;3.90;;
49828;SDS011;35723;51.194;5.112;2023-03-23T02:17:54;11.05;;;4.30;;
49828;SDS011;35723;51.194;5.112;2023-03-23T02:23:13;10.90;;;4.10;;
49828;SDS011;35723;51.194;5.112;2023-03-23T02:29:02;8.95;;;4.20;;
49828;SDS011;35723;51.194;5.112;2023-03-23T02:34:27;8.18;;;3.78;;
49828;SDS011;35723;51.194;5.112;2023-03-23T02:37:01;8.38;;;3.85;;
49828;SDS011;35723;51.194;5.112;2023-03-23T02:39:34;13.18;;;4.40;;
49828;SDS011;35723;51.194;5.112;2023-03-23T02:42:08;10.20;;;4.10;;
49828;SDS011;35723;51.194;5.112;2023-03-23T02:44:36;9.63;;;3.88;;
49828;SDS011;35723;51.194;5.112;2023-03-23T02:47:06;9.02;;;4.07;;
49828;SDS011;35723;51.194;5.112;2023-03-23T02:49:37;10.13;;;4.18;;
49828;SDS011;35723;51.194;5.112;2023-03-23T02:52:07;8.63;;;3.88;;
49828;SDS011;35723;51.194;5.112;2023-03-23T02:54:38;9.23;;;3.85;;
49828;SDS011;35723;51.194;5.112;2023-03-23T02:57:07;9.07;;;3.50;;
49828;SDS011;35723;51.194;5.112;2023-03-23T02:59:33;10.30;;;3.80;;
49828;SDS011;35723;51.194;5.112;2023-03-23T03:02:00;8.82;;;4.05;;
49828;SDS011;35723;51.194;5.112;2023-03-23T03:04:27;11.90;;;3.70;;
49828;SDS011;35723;51.194;5.112;2023-03-23T03:07:01;8.95;;;3.70;;
49828;SDS011;35723;51.194;5.112;2023-03-23T03:10:02;7.97;;;3.55;;
49828;SDS011;35723;51.194;5.112;2023-03-23T03:12:41;9.25;;;3.85;;
49828;SDS011;35723;51.194;5.112;2023-03-23T03:17:38;9.32;;;3.72;;
49828;SDS011;35723;51.194;5.112;2023-03-23T03:20:09;11.00;;;3.53;;
49828;SDS011;35723;51.194;5.112;2023-03-23T03:22:38;12.20;;;3.58;;
49828;SDS011;35723;51.194;5.112;2023-03-23T03:25:10;11.60;;;3.33;;
49828;SDS011;35723;51.194;5.112;2023-03-23T03:27:41;11.60;;;3.40;;
49828;SDS011;35723;51.194;5.112;2023-03-23T03:30:10;12.82;;;3.83;;
49828;SDS011;35723;51.194;5.112;2023-03-23T03:32:44;10.75;;;3.17;;
49828;SDS011;35723;51.194;5.112;2023-03-23T03:35:14;12.75;;;3.38;;
49828;SDS011;35723;51.194;5.112;2023-03-23T03:37:40;9.40;;;3.10;;
49828;SDS011;35723;51.194;5.112;2023-03-23T03:40:08;10.88;;;3.10;;
49828;SDS011;35723;51.194;5.112;2023-03-23T03:42:46;9.65;;;3.17;;
49828;SDS011;35723;51.194;5.112;2023-03-23T03:45:13;10.25;;;2.92;;
49828;SDS011;35723;51.194;5.112;2023-03-23T03:47:41;10.10;;;2.85;;
49828;SDS011;35723;51.194;5.112;2023-03-23T03:50:07;15.50;;;2.80;;
49828;SDS011;35723;51.194;5.112;2023-03-23T03:52:34;9.50;;;3.00;;
49828;SDS011;35723;51.194;5.112;2023-03-23T03:55:00;8.02;;;2.55;;
49828;SDS011;35723;51.194;5.112;2023-03-23T03:57:26;10.57;;;2.80;;
49828;SDS011;35723;51.194;5.112;2023-03-23T03:59:52;10.00;;;2.50;;
49828;SDS011;35723;51.194;5.112;2023-03-23T04:02:17;8.10;;;2.80;;
49828;SDS011;35723;51.194;5.112;2023-03-23T04:04:48;9.07;;;2.97;;
49828;SDS011;35723;51.194;5.112;2023-03-23T04:07:16;9.95;;;2.63;;
49828;SDS011;35723;51.194;5.112;2023-03-23T04:09:45;10.30;;;2.78;;
49828;SDS011;35723;51.194;5.112;2023-03-23T04:12:13;11.18;;;2.80;;
49828;SDS011;35723;51.194;5.112;2023-03-23T04:14:39;10.85;;;2.78;;
49828;SDS011;35723;51.194;5.112;2023-03-23T04:17:05;10.73;;;2.70;;
49828;SDS011;35723;51.194;5.112;2023-03-23T04:19:32;11.80;;;2.60;;
49828;SDS011;35723;51.194;5.112;2023-03-23T04:21:58;8.25;;;2.50;;
49828;SDS011;35723;51.194;5.112;2023-03-23T04:24:24;11.80;;;2.90;;
49828;SDS011;35723;51.194;5.112;2023-03-23T04:26:53;13.30;;;3.10;;
49828;SDS011;35723;51.194;5.112;2023-03-23T04:29:19;10.27;;;2.70;;
49828;SDS011;35723;51.194;5.112;2023-03-23T04:31:45;14.10;;;2.60;;
49828;SDS011;35723;51.194;5.112;2023-03-23T04:34:11;8.90;;;2.60;;
49828;SDS011;35723;51.194;5.112;2023-03-23T04:36:38;11.80;;;2.95;;
49828;SDS011;35723;51.194;5.112;2023-03-23T04:39:05;9.75;;;2.70;;
49828;SDS011;35723;51.194;5.112;2023-03-23T04:41:34;11.05;;;2.78;;
49828;SDS011;35723;51.194;5.112;2023-03-23T04:44:01;9.30;;;2.67;;
49828;SDS011;35723;51.194;5.112;2023-03-23T04:46:29;12.50;;;3.25;;
49828;SDS011;35723;51.194;5.112;2023-03-23T04:48:55;10.68;;;3.20;;
49828;SDS011;35723;51.194;5.112;2023-03-23T04:51:23;9.48;;;3.03;;
49828;SDS011;35723;51.194;5.112;2023-03-23T04:53:51;9.63;;;3.00;;
49828;SDS011;35723;51.194;5.112;2023-03-23T04:56:17;11.57;;;3.28;;
49828;SDS011;35723;51.194;5.112;2023-03-23T04:58:43;9.88;;;2.83;;
49828;SDS011;35723;51.194;5.112;2023-03-23T05:01:10;11.82;;;3.22;;
49828;SDS011;35723;51.194;5.112;2023-03-23T05:03:39;12.25;;;3.30;;
49828;SDS011;35723;51.194;5.112;2023-03-23T05:06:05;14.23;;;3.55;;
49828;SDS011;35723;51.194;5.112;2023-03-23T05:08:31;13.52;;;3.30;;
49828;SDS011;35723;51.194;5.112;2023-03-23T05:10:58;11.23;;;3.10;;
49828;SDS011;35723;51.194;5.112;2023-03-23T05:13:24;13.43;;;3.20;;
49828;SDS011;35723;51.194;5.112;2023-03-23T05:15:51;13.63;;;3.30;;
49828;SDS011;35723;51.194;5.112;2023-03-23T05:18:17;16.05;;;3.25;;
49828;SDS011;35723;51.194;5.112;2023-03-23T05:20:45;10.63;;;2.95;;
49828;SDS011;35723;51.194;5.112;2023-03-23T05:23:11;12.77;;;3.28;;
49828;SDS011;35723;51.194;5.112;2023-03-23T05:25:37;14.20;;;3.10;;
49828;SDS011;35723;51.194;5.112;2023-03-23T05:28:07;11.82;;;2.90;;
49828;SDS011;35723;51.194;5.112;2023-03-23T05:30:35;14.98;;;2.92;;
49828;SDS011;35723;51.194;5.112;2023-03-23T05:33:03;16.05;;;2.88;;
49828;SDS011;35723;51.194;5.112;2023-03-23T05:35:29;15.02;;;2.88;;
49828;SDS011;35723;51.194;5.112;2023-03-23T05:37:55;10.52;;;2.70;;
49828;SDS011;35723;51.194;5.112;2023-03-23T05:40:22;21.23;;;3.33;;
49828;SDS011;35723;51.194;5.112;2023-03-23T05:42:50;12.57;;;2.95;;
49828;SDS011;35723;51.194;5.112;2023-03-23T05:45:17;15.50;;;2.78;;
49828;SDS011;35723;51.194;5.112;2023-03-23T05:47:43;13.77;;;2.70;;
49828;SDS011;35723;51.194;5.112;2023-03-23T05:50:09;17.98;;;3.70;;
49828;SDS011;35723;51.194;5.112;2023-03-23T05:52:35;14.60;;;3.17;;
49828;SDS011;35723;51.194;5.112;2023-03-23T05:55:02;12.75;;;2.72;;
49828;SDS011;35723;51.194;5.112;2023-03-23T05:57:29;16.70;;;3.50;;
49828;SDS011;35723;51.194;5.112;2023-03-23T05:59:55;9.18;;;2.35;;
49828;SDS011;35723;51.194;5.112;2023-03-23T06:02:22;14.25;;;2.60;;
49828;SDS011;35723;51.194;5.112;2023-03-23T06:04:49;11.73;;;2.50;;
49828;SDS011;35723;51.194;5.112;2023-03-23T06:07:15;10.10;;;2.50;;
49828;SDS011;35723;51.194;5.112;2023-03-23T06:09:41;13.45;;;2.65;;
49828;SDS011;35723;51.194;5.112;2023-03-23T06:12:08;11.80;;;2.40;;
49828;SDS011;35723;51.194;5.112;2023-03-23T06:14:35;11.20;;;2.30;;
49828;SDS011;35723;51.194;5.112;2023-03-23T06:17:02;8.50;;;2.17;;
49828;SDS011;35723;51.194;5.112;2023-03-23T06:19:27;11.63;;;2.17;;
49828;SDS011;35723;51.194;5.112;2023-03-23T06:21:56;10.68;;;2.33;;
49828;SDS011;35723;51.194;5.112;2023-03-23T06:24:22;14.23;;;2.72;;
49828;SDS011;35723;51.194;5.112;2023-03-23T06:26:47;10.45;;;2.35;;
49828;SDS011;35723;51.194;5.112;2023-03-23T06:29:15;10.23;;;2.33;;
49828;SDS011;35723;51.194;5.112;2023-03-23T06:31:46;6.97;;;2.38;;
49828;SDS011;35723;51.194;5.112;2023-03-23T06:34:14;10.25;;;2.40;;
49828;SDS011;35723;51.194;5.112;2023-03-23T06:36:40;12.43;;;2.30;;
49828;SDS011;35723;51.194;5.112;2023-03-23T06:39:08;7.32;;;2.10;;
49828;SDS011;35723;51.194;5.112;2023-03-23T06:41:34;13.63;;;2.70;;
49828;SDS011;35723;51.194;5.112;2023-03-23T06:44:00;9.15;;;2.08;;
49828;SDS011;35723;51.194;5.112;2023-03-23T06:46:26;12.88;;;2.90;;
49828;SDS011;35723;51.194;5.112;2023-03-23T06:48:52;10.88;;;2.63;;
49828;SDS011;35723;51.194;5.112;2023-03-23T06:51:19;8.98;;;2.22;;
49828;SDS011;35723;51.194;5.112;2023-03-23T06:53:45;9.82;;;2.30;;
49828;SDS011;35723;51.194;5.112;2023-03-23T06:56:11;10.88;;;2.30;;
49828;SDS011;35723;51.194;5.112;2023-03-23T06:58:38;12.60;;;2.60;;
49828;SDS011;35723;51.194;5.112;2023-03-23T07:01:03;8.88;;;2.20;;
49828;SDS011;35723;51.194;5.112;2023-03-23T07:03:30;9.85;;;2.65;;
49828;SDS011;35723;51.194;5.112;2023-03-23T07:05:56;8.52;;;2.63;;
49828;SDS011;35723;51.194;5.112;2023-03-23T07:08:23;10.90;;;2.55;;
49828;SDS011;35723;51.194;5.112;2023-03-23T07:10:53;9.25;;;2.60;;
49828;SDS011;35723;51.194;5.112;2023-03-23T07:13:19;12.30;;;2.70;;
49828;SDS011;35723;51.194;5.112;2023-03-23T07:15:45;14.25;;;3.05;;
49828;SDS011;35723;51.194;5.112;2023-03-23T07:18:11;12.20;;;3.00;;
49828;SDS011;35723;51.194;5.112;2023-03-23T07:20:37;11.35;;;2.67;;
49828;SDS011;35723;51.194;5.112;2023-03-23T07:23:03;15.20;;;3.05;;
49828;SDS011;35723;51.194;5.112;2023-03-23T07:25:31;11.80;;;2.70;;
49828;SDS011;35723;51.194;5.112;2023-03-23T07:27:58;17.42;;;3.00;;
49828;SDS011;35723;51.194;5.112;2023-03-23T07:30:25;9.88;;;2.10;;
49828;SDS011;35723;51.194;5.112;2023-03-23T07:32:51;11.15;;;2.45;;
49828;SDS011;35723;51.194;5.112;2023-03-23T07:35:18;9.43;;;1.98;;
49828;SDS011;35723;51.194;5.112;2023-03-23T07:37:43;7.25;;;1.20;;
49828;SDS011;35723;51.194;5.112;2023-03-23T07:40:10;3.90;;;1.30;;
49828;SDS011;35723;51.194;5.112;2023-03-23T07:42:43;5.07;;;1.27;;
49828;SDS011;35723;51.194;5.112;2023-03-23T07:45:13;5.43;;;1.38;;
49828;SDS011;35723;51.194;5.112;2023-03-23T07:47:39;8.10;;;1.27;;
49828;SDS011;35723;51.194;5.112;2023-03-23T07:50:05;3.72;;;1.33;;
49828;SDS011;35723;51.194;5.112;2023-03-23T07:52:32;6.40;;;1.00;;
49828;SDS011;35723;51.194;5.112;2023-03-23T07:54:59;3.75;;;0.93;;
49828;SDS011;35723;51.194;5.112;2023-03-23T07:57:26;7.78;;;1.10;;
49828;SDS011;35723;51.194;5.112;2023-03-23T07:59:53;5.00;;;0.90;;
49828;SDS011;35723;51.194;5.112;2023-03-23T08:02:18;3.67;;;1.10;;
49828;SDS011;35723;51.194;5.112;2023-03-23T08:04:44;6.28;;;1.13;;
49828;SDS011;35723;51.194;5.112;2023-03-23T08:07:10;4.88;;;1.05;;
49828;SDS011;35723;51.194;5.112;2023-03-23T08:09:37;5.95;;;1.05;;
49828;SDS011;35723;51.194;5.112;2023-03-23T08:12:04;4.03;;;1.20;;
49828;SDS011;35723;51.194;5.112;2023-03-23T08:14:30;3.42;;;1.00;;
49828;SDS011;35723;51.194;5.112;2023-03-23T08:16:56;5.10;;;1.02;;
49828;SDS011;35723;51.194;5.112;2023-03-23T08:19:22;3.92;;;1.10;;
49828;SDS011;35723;51.194;5.112;2023-03-23T08:21:47;3.10;;;0.95;;
49828;SDS011;35723;51.194;5.112;2023-03-23T08:24:14;3.90;;;1.08;;
49828;SDS011;35723;51.194;5.112;2023-03-23T08:26:40;3.60;;;1.00;;
49828;SDS011;35723;51.194;5.112;2023-03-23T08:29:06;6.30;;;1.35;;
49828;SDS011;35723;51.194;5.112;2023-03-23T08:31:33;4.75;;;1.02;;
49828;SDS011;35723;51.194;5.112;2023-03-23T08:34:03;6.30;;;1.60;;
49828;SDS011;35723;51.194;5.112;2023-03-23T08:36:33;7.10;;;1.25;;
49828;SDS011;35723;51.194;5.112;2023-03-23T08:38:59;5.10;;;1.20;;
49828;SDS011;35723;51.194;5.112;2023-03-23T08:41:25;5.18;;;1.10;;
49828;SDS011;35723;51.194;5.112;2023-03-23T08:43:51;3.15;;;1.13;;
49828;SDS011;35723;51.194;5.112;2023-03-23T08:46:19;2.95;;;1.25;;
49828;SDS011;35723;51.194;5.112;2023-03-23T08:48:46;4.93;;;1.15;;
49828;SDS011;35723;51.194;5.112;2023-03-23T08:51:11;5.97;;;1.58;;
49828;SDS011;35723;51.194;5.112;2023-03-23T08:53:37;4.93;;;1.42;;
49828;SDS011;35723;51.194;5.112;2023-03-23T08:56:07;5.63;;;1.50;;
49828;SDS011;35723;51.194;5.112;2023-03-23T08:58:35;6.22;;;1.50;;
49828;SDS011;35723;51.194;5.112;2023-03-23T09:01:02;6.90;;;1.60;;
49828;SDS011;35723;51.194;5.112;2023-03-23T09:03:28;7.28;;;1.90;;
49828;SDS011;35723;51.194;5.112;2023-03-23T09:05:57;5.05;;;1.45;;
49828;SDS011;35723;51.194;5.112;2023-03-23T09:08:28;6.00;;;1.58;;
49828;SDS011;35723;51.194;5.112;2023-03-23T09:11:01;7.85;;;1.48;;
49828;SDS011;35723;51.194;5.112;2023-03-23T09:15:53;6.68;;;1.50;;
49828;SDS011;35723;51.194;5.112;2023-03-23T09:18:19;5.10;;;1.33;;
49828;SDS011;35723;51.194;5.112;2023-03-23T09:20:45;3.75;;;1.33;;
49828;SDS011;35723;51.194;5.112;2023-03-23T09:23:11;7.03;;;1.75;;
49828;SDS011;35723;51.194;5.112;2023-03-23T09:25:38;4.20;;;1.50;;
49828;SDS011;35723;51.194;5.112;2023-03-23T09:28:04;7.60;;;1.70;;
49828;SDS011;35723;51.194;5.112;2023-03-23T09:30:30;6.40;;;1.40;;
49828;SDS011;35723;51.194;5.112;2023-03-23T09:32:59;6.43;;;1.88;;
49828;SDS011;35723;51.194;5.112;2023-03-23T09:35:28;6.30;;;1.35;;
49828;SDS011;35723;51.194;5.112;2023-03-23T09:37:56;3.72;;;1.73;;
49828;SDS011;35723;51.194;5.112;2023-03-23T09:40:26;8.75;;;1.50;;
49828;SDS011;35723;51.194;5.112;2023-03-23T09:48:33;9.07;;;1.92;;
49828;SDS011;35723;51.194;5.112;2023-03-23T09:53:38;8.55;;;1.90;;
49828;SDS011;35723;51.194;5.112;2023-03-23T09:56:11;9.07;;;2.00;;
49828;SDS011;35723;51.194;5.112;2023-03-23T10:04:06;8.80;;;1.80;;
49828;SDS011;35723;51.194;5.112;2023-03-23T10:06:41;11.93;;;2.22;;
49828;SDS011;35723;51.194;5.112;2023-03-23T10:09:08;10.35;;;1.98;;
49828;SDS011;35723;51.194;5.112;2023-03-23T10:14:33;13.23;;;2.10;;
49828;SDS011;35723;51.194;5.112;2023-03-23T10:17:56;9.68;;;2.03;;
49828;SDS011;35723;51.194;5.112;2023-03-23T10:20:19;10.50;;;1.80;;
49828;SDS011;35723;51.194;5.112;2023-03-23T10:25:26;5.50;;;1.50;;
49828;SDS011;35723;51.194;5.112;2023-03-23T10:28:04;11.20;;;1.90;;
49828;SDS011;35723;51.194;5.112;2023-03-23T10:30:39;7.47;;;1.60;;
49828;SDS011;35723;51.194;5.112;2023-03-23T10:33:15;5.40;;;1.70;;
49828;SDS011;35723;51.194;5.112;2023-03-23T10:35:46;7.15;;;1.80;;
49828;SDS011;35723;51.194;5.112;2023-03-23T10:38:14;7.82;;;1.90;;
49828;SDS011;35723;51.194;5.112;2023-03-23T10:40:59;9.10;;;1.60;;
49828;SDS011;35723;51.194;5.112;2023-03-23T10:43:30;5.93;;;1.80;;
49828;SDS011;35723;51.194;5.112;2023-03-23T10:45:59;9.07;;;1.92;;
49828;SDS011;35723;51.194;5.112;2023-03-23T10:48:32;7.40;;;1.80;;
49828;SDS011;35723;51.194;5.112;2023-03-23T10:51:02;7.45;;;2.05;;
49828;SDS011;35723;51.194;5.112;2023-03-23T10:53:31;4.55;;;1.77;;
49828;SDS011;35723;51.194;5.112;2023-03-23T10:56:18;7.13;;;2.17;;
49828;SDS011;35723;51.194;5.112;2023-03-23T10:58:48;5.90;;;2.00;;
49828;SDS011;35723;51.194;5.112;2023-03-23T11:01:14;9.18;;;2.10;;
49828;SDS011;35723;51.194;5.112;2023-03-23T11:03:45;6.35;;;2.13;;
49828;SDS011;35723;51.194;5.112;2023-03-23T11:06:48;6.65;;;2.10;;
49828;SDS011;35723;51.194;5.112;2023-03-23T11:09:11;10.75;;;2.40;;
49828;SDS011;35723;51.194;5.112;2023-03-23T11:11:52;4.68;;;1.88;;
49828;SDS011;35723;51.194;5.112;2023-03-23T11:16:56;10.95;;;2.58;;
49828;SDS011;35723;51.194;5.112;2023-03-23T11:22:00;11.35;;;2.20;;
49828;SDS011;35723;51.194;5.112;2023-03-23T11:24:33;9.57;;;2.17;;
49828;SDS011;35723;51.194;5.112;2023-03-23T11:27:01;6.82;;;2.20;;
49828;SDS011;35723;51.194;5.112;2023-03-23T11:29:31;10.05;;;2.33;;
49828;SDS011;35723;51.194;5.112;2023-03-23T11:34:25;9.35;;;2.03;;
49828;SDS011;35723;51.194;5.112;2023-03-23T11:37:08;11.52;;;2.50;;
49828;SDS011;35723;51.194;5.112;2023-03-23T11:39:57;8.43;;;2.30;;
49828;SDS011;35723;51.194;5.112;2023-03-23T11:42:27;6.45;;;2.30;;
49828;SDS011;35723;51.194;5.112;2023-03-23T11:50:23;8.25;;;2.20;;
49828;SDS011;35723;51.194;5.112;2023-03-23T11:58:13;9.20;;;2.08;;
49828;SDS011;35723;51.194;5.112;2023-03-23T12:00:48;12.15;;;2.30;;
49828;SDS011;35723;51.194;5.112;2023-03-23T12:06:16;13.57;;;2.60;;
49828;SDS011;35723;51.194;5.112;2023-03-23T12:12:09;13.85;;;2.88;;
49828;SDS011;35723;51.194;5.112;2023-03-23T12:17:21;8.95;;;2.22;;
49828;SDS011;35723;51.194;5.112;2023-03-23T12:28:15;13.23;;;2.78;;
49828;SDS011;35723;51.194;5.112;2023-03-23T12:31:24;14.50;;;3.05;;
49828;SDS011;35723;51.194;5.112;2023-03-23T12:36:53;11.73;;;2.70;;
49828;SDS011;35723;51.194;5.112;2023-03-23T12:40:03;8.07;;;2.50;;
49828;SDS011;35723;51.194;5.112;2023-03-23T12:42:47;12.65;;;2.70;;
49828;SDS011;35723;51.194;5.112;2023-03-23T12:47:50;11.05;;;2.30;;
49828;SDS011;35723;51.194;5.112;2023-03-23T12:50:29;14.65;;;2.35;;
49828;SDS011;35723;51.194;5.112;2023-03-23T12:53:11;10.73;;;2.40;;
49828;SDS011;35723;51.194;5.112;2023-03-23T12:58:13;13.60;;;3.50;;
49828;SDS011;35723;51.194;5.112;2023-03-23T13:00:51;12.50;;;3.58;;
49828;SDS011;35723;51.194;5.112;2023-03-23T13:06:15;18.98;;;4.82;;
49828;SDS011;35723;51.194;5.112;2023-03-23T13:09:47;14.95;;;4.40;;
49828;SDS011;35723;51.194;5.112;2023-03-23T13:12:01;15.30;;;3.50;;
49828;SDS011;35723;51.194;5.112;2023-03-23T13:22:18;12.32;;;2.70;;
49828;SDS011;35723;51.194;5.112;2023-03-23T13:25:15;8.80;;;2.45;;
49828;SDS011;35723;51.194;5.112;2023-03-23T13:27:55;10.95;;;2.45;;
49828;SDS011;35723;51.194;5.112;2023-03-23T13:30:26;9.93;;;2.55;;
49828;SDS011;35723;51.194;5.112;2023-03-23T13:33:00;11.30;;;2.15;;
49828;SDS011;35723;51.194;5.112;2023-03-23T13:35:35;13.68;;;2.40;;
49828;SDS011;35723;51.194;5.112;2023-03-23T13:38:10;14.38;;;2.35;;
49828;SDS011;35723;51.194;5.112;2023-03-23T13:40:43;12.35;;;2.30;;
49828;SDS011;35723;51.194;5.112;2023-03-23T13:43:10;12.45;;;2.58;;
49828;SDS011;35723;51.194;5.112;2023-03-23T13:45:42;8.95;;;2.08;;
49828;SDS011;35723;51.194;5.112;2023-03-23T13:50:54;12.90;;;2.08;;
49828;SDS011;35723;51.194;5.112;2023-03-23T13:53:25;12.32;;;2.22;;
49828;SDS011;35723;51.194;5.112;2023-03-23T13:56:13;10.10;;;2.30;;
49828;SDS011;35723;51.194;5.112;2023-03-23T13:59:05;16.83;;;2.58;;
49828;SDS011;35723;51.194;5.112;2023-03-23T14:01:41;11.23;;;2.28;;
49828;SDS011;35723;51.194;5.112;2023-03-23T14:04:13;16.35;;;3.00;;
49828;SDS011;35723;51.194;5.112;2023-03-23T14:06:43;13.18;;;3.15;;
49828;SDS011;35723;51.194;5.112;2023-03-23T14:09:25;13.90;;;3.03;;
49828;SDS011;35723;51.194;5.112;2023-03-23T14:12:17;10.00;;;2.80;;
49828;SDS011;35723;51.194;5.112;2023-03-23T14:14:55;12.85;;;2.90;;
49828;SDS011;35723;51.194;5.112;2023-03-23T14:17:27;11.75;;;3.00;;
49828;SDS011;35723;51.194;5.112;2023-03-23T14:19:55;13.95;;;3.30;;
49828;SDS011;35723;51.194;5.112;2023-03-23T14:22:40;14.65;;;3.28;;
49828;SDS011;35723;51.194;5.112;2023-03-23T14:25:16;10.73;;;2.78;;
49828;SDS011;35723;51.194;5.112;2023-03-23T14:27:43;8.93;;;2.60;;
49828;SDS011;35723;51.194;5.112;2023-03-23T14:30:14;14.10;;;3.08;;
49828;SDS011;35723;51.194;5.112;2023-03-23T14:32:41;9.93;;;2.78;;
49828;SDS011;35723;51.194;5.112;2023-03-23T14:35:12;14.98;;;3.03;;
49828;SDS011;35723;51.194;5.112;2023-03-23T14:37:45;10.90;;;2.50;;
49828;SDS011;35723;51.194;5.112;2023-03-23T14:40:13;16.90;;;3.33;;
49828;SDS011;35723;51.194;5.112;2023-03-23T14:42:41;11.60;;;2.30;;
49828;SDS011;35723;51.194;5.112;2023-03-23T14:45:09;13.88;;;2.72;;
49828;SDS011;35723;51.194;5.112;2023-03-23T14:47:45;13.30;;;3.00;;
49828;SDS011;35723;51.194;5.112;2023-03-23T14:50:49;10.75;;;2.67;;
49828;SDS011;35723;51.194;5.112;2023-03-23T14:55:52;15.70;;;3.05;;
49828;SDS011;35723;51.194;5.112;2023-03-23T14:58:21;12.85;;;2.88;;
49828;SDS011;35723;51.194;5.112;2023-03-23T15:01:10;15.52;;;2.97;;
49828;SDS011;35723;51.194;5.112;2023-03-23T15:03:41;14.70;;;2.83;;
49828;SDS011;35723;51.194;5.112;2023-03-23T15:06:12;15.23;;;3.10;;
49828;SDS011;35723;51.194;5.112;2023-03-23T15:08:39;11.60;;;3.05;;
49828;SDS011;35723;51.194;5.112;2023-03-23T15:11:13;11.98;;;2.60;;
49828;SDS011;35723;51.194;5.112;2023-03-23T15:13:57;12.38;;;2.92;;
49828;SDS011;35723;51.194;5.112;2023-03-23T15:16:32;12.40;;;2.80;;
49828;SDS011;35723;51.194;5.112;2023-03-23T15:19:03;12.52;;;2.53;;
49828;SDS011;35723;51.194;5.112;2023-03-23T15:21:56;11.70;;;2.53;;
49828;SDS011;35723;51.194;5.112;2023-03-23T15:24:33;15.35;;;2.92;;
49828;SDS011;35723;51.194;5.112;2023-03-23T15:27:10;14.02;;;2.50;;
49828;SDS011;35723;51.194;5.112;2023-03-23T15:32:54;15.05;;;3.03;;
49828;SDS011;35723;51.194;5.112;2023-03-23T15:35:25;11.18;;;2.35;;
49828;SDS011;35723;51.194;5.112;2023-03-23T15:37:52;13.10;;;3.00;;
49828;SDS011;35723;51.194;5.112;2023-03-23T15:40:24;12.02;;;2.75;;
49828;SDS011;35723;51.194;5.112;2023-03-23T15:43:05;10.68;;;2.90;;
49828;SDS011;35723;51.194;5.112;2023-03-23T15:45:33;14.68;;;3.08;;
49828;SDS011;35723;51.194;5.112;2023-03-23T15:48:11;15.18;;;3.15;;
49828;SDS011;35723;51.194;5.112;2023-03-23T15:50:39;17.85;;;3.10;;
49828;SDS011;35723;51.194;5.112;2023-03-23T15:56:00;14.95;;;3.33;;
49828;SDS011;35723;51.194;5.112;2023-03-23T15:58:28;12.48;;;3.10;;
49828;SDS011;35723;51.194;5.112;2023-03-23T16:00:54;14.43;;;3.50;;
49828;SDS011;35723;51.194;5.112;2023-03-23T16:03:55;11.68;;;3.15;;
49828;SDS011;35723;51.194;5.112;2023-03-23T16:06:15;16.30;;;3.28;;
49828;SDS011;35723;51.194;5.112;2023-03-23T16:08:43;14.57;;;3.38;;
49828;SDS011;35723;51.194;5.112;2023-03-23T16:11:10;14.68;;;3.17;;
49828;SDS011;35723;51.194;5.112;2023-03-23T16:13:37;14.00;;;3.15;;
49828;SDS011;35723;51.194;5.112;2023-03-23T16:16:03;13.80;;;3.35;;
49828;SDS011;35723;51.194;5.112;2023-03-23T16:18:30;14.45;;;3.33;;
49828;SDS011;35723;51.194;5.112;2023-03-23T16:20:56;14.60;;;3.20;;
49828;SDS011;35723;51.194;5.112;2023-03-23T16:23:21;11.13;;;3.28;;
49828;SDS011;35723;51.194;5.112;2023-03-23T16:25:47;18.67;;;3.50;;
49828;SDS011;35723;51.194;5.112;2023-03-23T16:28:14;17.02;;;3.70;;
49828;SDS011;35723;51.194;5.112;2023-03-23T16:30:40;18.35;;;3.38;;
49828;SDS011;35723;51.194;5.112;2023-03-23T16:33:07;13.35;;;3.15;;
49828;SDS011;35723;51.194;5.112;2023-03-23T16:35:33;12.65;;;3.08;;
49828;SDS011;35723;51.194;5.112;2023-03-23T16:37:59;15.82;;;3.30;;
49828;SDS011;35723;51.194;5.112;2023-03-23T16:40:25;14.32;;;2.90;;